Airfield :
LOGIN :

Register | Disclaimer

   EN    FR    IT 

 










Legend :    VFR   Marginal VFR   IFR   Intensive IFR   Very Intensive IFR
Visi :
Ceiling :
>= 8 km
>= 3000ft
5 to 8 km
1000 to 3000 ft
1500m to 5 km
500 to 1000 ft
800 to 1500m
200 to 500 ft
< 800m
< 200 ft
Symbols :   Thunderstorms  Fog  Heavy snow  Heavy precipitations  Wind > 20 kt
SIGMETs :     Misc.  Thunderstorms  Icing  Turbulence  Mountain Waves  Volcanic Ashes






- Airport Elevation : 102 ft
- IATA code : CNG


LFBG - Cognac

CURRENT METAR :
  • 292000Z AUTO 12006KT 9999 FEW035 BKN048 BKN056 10/08 Q1019 BECMG BKN014

EXPIRED METARs :
  • 291930Z AUTO 13005KT CAVOK 10/08 Q1019 BECMG BKN014
  • 291900Z AUTO 12004KT CAVOK 10/09 Q1019 BECMG BKN014
  • 291830Z AUTO 11005KT CAVOK 10/08 Q1019 BECMG BKN014
  • 291800Z AUTO 10005KT CAVOK 10/08 Q1019 BECMG BKN014
  • 291730Z AUTO 15004KT CAVOK 10/08 Q1018 BECMG BKN014

TAF TAF LFBG
Valid from the 29 at 15:00 until the 30 at 15:00 UTC


291400Z 2915/3015 23008KT 9999 SCT040
BECMG 2919/2921 15012KT BKN014
TEMPO 3002/3009 4000 -RADZ BKN006



MET'MAP, your aeronautical weather chart ! - Copyright ORBIFLY December 2007 - Disclaimer

ORBIFLY MET'MAP TEAM :

Programming & Development : Alexandra Zaïnal
Concept & original design : Baudouin d'Aumeries
Assistance for programming : Marc-Olivier Méhu
Technical & hardware support : Manuel Goepfert

Contact : metmap@orbifly.com




SOURCES & CREDITS :

   NOAA